Time;durP1;ratioP1;P1;durP2;ratioP2;P2;SDS_P1;SDS_P2;PMS_P1;PMS_P2;Temp;Humidity;BMP_temperature;BMP_pressure;BME280_temperature;BME280_humidity;BME280_pressure;Samples;Min_cycle;Max_cycle;Signal;HPM_P1;HPM_P2
2021/12/02 00:01:45;;;;;;;5.10;3.50;;;;;;;5.61;84.81;97171.14;227827;1192;139468;-68
2021/12/02 00:06:48;;;;;;;5.40;3.70;;;;;;;5.62;84.93;97166.06;230084;1193;139567;-70
2021/12/02 00:11:50;;;;;;;3.80;3.30;;;;;;;5.63;85.10;97168.50;229521;1193;138656;-68
2021/12/02 00:22:03;;;;;;;3.10;2.90;;;;;;;5.73;84.63;97168.94;230431;1193;140481;-69
2021/12/02 00:27:08;;;;;;;5.20;3.80;;;;;;;5.74;84.62;97170.67;230563;1193;140110;-69
2021/12/02 00:32:11;;;;;;;3.90;3.40;;;;;;;5.74;84.37;97171.52;230242;1193;140941;-69
2021/12/02 00:37:14;;;;;;;3.30;3.00;;;;;;;5.82;84.39;97167.69;230462;1193;140051;-69
2021/12/02 00:42:18;;;;;;;2.60;2.40;;;;;;;5.87;84.50;97170.95;229500;1193;141143;-69
2021/12/02 00:47:54;;;;;;;;;;;;;;;;;;;;;
2021/12/02 00:52:58;;;;;;;4.30;3.10;;;;;;;5.97;84.51;97171.73;228621;1193;138893;-68
2021/12/02 00:58:01;;;;;;;4.90;3.20;;;;;;;5.99;84.17;97175.79;228074;1193;140628;-68
2021/12/02 01:03:04;;;;;;;4.50;4.10;;;;;;;5.96;84.40;97177.75;228424;1193;139536;-68
2021/12/02 01:08:11;;;;;;;3.80;2.60;;;;;;;5.96;83.99;97168.13;227700;1193;142923;-68
2021/12/02 01:13:13;;;;;;;3.10;2.80;;;;;;;5.92;83.98;97165.70;228612;1193;139808;-69
2021/12/02 01:18:24;;;;;;;4.30;3.10;;;;;;;5.87;83.74;97158.05;228129;1193;138755;-68
2021/12/02 01:23:30;;;;;;;3.10;2.60;;;;;;;5.84;83.76;97166.46;227546;1194;139271;-69
2021/12/02 01:28:53;;;;;;;6.10;3.60;;;;;;;5.83;83.90;97169.42;228233;1193;138990;-68
2021/12/02 01:33:59;;;;;;;3.70;2.70;;;;;;;5.85;83.73;97163.61;228400;1193;139554;-68
2021/12/02 01:39:05;;;;;;;3.20;2.70;;;;;;;5.90;83.65;97170.77;227822;1193;139383;-68
2021/12/02 01:44:13;;;;;;;3.40;2.40;;;;;;;5.92;83.79;97172.67;228246;1193;139694;-68
2021/12/02 01:49:23;;;;;;;2.60;2.40;;;;;;;5.91;83.74;97168.50;228951;1193;138268;-69
2021/12/02 01:54:30;;;;;;;3.10;2.80;;;;;;;5.95;83.53;97163.05;228354;1193;140409;-68
2021/12/02 01:59:39;;;;;;;2.20;1.90;;;;;;;5.98;83.71;97162.58;227999;1193;138865;-69
2021/12/02 02:04:46;;;;;;;4.20;2.80;;;;;;;5.99;83.37;97163.63;228563;1193;139202;-69
2021/12/02 02:10:00;;;;;;;3.70;3.40;;;;;;;6.04;83.34;97158.12;228917;1193;139318;-68
2021/12/02 02:15:07;;;;;;;4.20;2.70;;;;;;;6.00;83.10;97152.58;228087;1193;139743;-68
2021/12/02 02:20:29;;;;;;;2.60;2.00;;;;;;;5.97;82.92;97164.11;229374;1193;140517;-69
2021/12/02 02:25:45;;;;;;;3.80;2.50;;;;;;;6.00;83.27;97156.91;228972;1193;139958;-68
2021/12/02 02:31:00;;;;;;;2.50;2.30;;;;;;;6.02;82.95;97151.94;228034;1180;139563;-69
2021/12/02 02:36:29;;;;;;;;;;;;;;;;;;;;;
2021/12/02 02:41:40;;;;;;;2.50;2.30;;;;;;;6.03;82.78;97137.98;228917;1193;141451;-70
2021/12/02 02:46:43;;;;;;;2.40;1.90;;;;;;;5.95;82.58;97133.13;229579;1193;139686;-69
2021/12/02 02:51:57;;;;;;;3.70;2.20;;;;;;;5.91;82.10;97137.30;228220;1194;140991;-69
2021/12/02 02:57:04;;;;;;;2.10;2.00;;;;;;;5.85;82.16;97139.23;227675;1193;142006;-69
2021/12/02 03:02:25;;;;;;;3.70;1.80;;;;;;;5.77;81.78;97148.10;229554;1193;139193;-68
2021/12/02 03:07:52;;;;;;;1.90;1.10;;;;;;;5.68;82.01;97155.83;228085;1193;139433;-69
2021/12/02 03:12:58;;;;;;;1.40;1.40;;;;;;;5.64;81.37;97161.47;228595;1193;140569;-69
2021/12/02 03:18:07;;;;;;;1.10;1.00;;;;;;;5.65;81.50;97165.75;228155;1193;140855;-67
2021/12/02 03:23:18;;;;;;;1.40;1.00;;;;;;;5.66;80.97;97167.71;227465;1194;141079;-69
2021/12/02 03:28:23;;;;;;;1.40;1.30;;;;;;;5.63;81.37;97173.00;228392;1193;139642;-70
2021/12/02 03:34:00;;;;;;;;;;;;;;;;;;;;;
2021/12/02 03:39:17;;;;;;;1.60;1.20;;;;;;;5.56;81.06;97190.11;227974;1193;138730;-70
2021/12/02 03:44:33;;;;;;;2.00;1.90;;;;;;;5.54;80.88;97191.91;229260;1193;139110;-69
2021/12/02 03:49:40;;;;;;;2.10;2.00;;;;;;;5.49;80.84;97196.41;228470;1193;140100;-69
2021/12/02 03:54:44;;;;;;;5.20;1.40;;;;;;;5.47;80.57;97202.61;228520;1193;140065;-69
2021/12/02 03:59:46;;;;;;;2.00;1.00;;;;;;;5.41;80.12;97214.11;229171;1193;139030;-69
2021/12/02 04:04:49;;;;;;;1.80;0.90;;;;;;;5.32;80.40;97221.44;227802;1193;141137;-68
2021/12/02 04:10:12;;;;;;;0.80;0.80;;;;;;;5.29;80.05;97229.52;227992;1193;142192;-69
2021/12/02 04:15:29;;;;;;;0.40;0.40;;;;;;;5.25;79.94;97225.86;228491;1193;139362;-69
2021/12/02 04:20:37;;;;;;;0.70;0.70;;;;;;;5.18;79.99;97226.81;228977;1193;231806;-70
2021/12/02 04:25:50;;;;;;;0.50;0.50;;;;;;;5.15;79.16;97242.17;229371;1193;141433;-69
2021/12/02 04:30:53;;;;;;;0.90;0.80;;;;;;;5.10;78.84;97256.94;230051;1193;141083;-70
2021/12/02 04:36:09;;;;;;;4.30;0.90;;;;;;;5.08;78.98;97262.86;228990;1193;139324;-70
2021/12/02 04:41:13;;;;;;;2.60;1.10;;;;;;;5.10;78.87;97264.92;229914;1193;140646;-70
2021/12/02 04:46:16;;;;;;;0.40;0.40;;;;;;;5.10;79.12;97275.43;230496;1193;139360;-71
2021/12/02 04:51:19;;;;;;;0.50;0.50;;;;;;;5.12;79.19;97287.74;230302;1193;139082;-69
2021/12/02 04:56:22;;;;;;;1.00;0.90;;;;;;;5.20;78.86;97285.23;230379;1193;139328;-69
2021/12/02 05:01:30;;;;;;;7.70;0.70;;;;;;;5.25;78.84;97286.40;228361;1193;138958;-69
2021/12/02 05:06:39;;;;;;;0.60;0.60;;;;;;;5.23;78.52;97301.06;227945;1193;138420;-69
2021/12/02 05:11:44;;;;;;;0.70;0.70;;;;;;;5.20;78.37;97299.86;228441;1193;140669;-68
2021/12/02 05:16:58;;;;;;;0.80;0.50;;;;;;;5.12;78.25;97307.28;228636;1193;140386;-69
2021/12/02 05:22:00;;;;;;;0.60;0.40;;;;;;;5.01;77.81;97320.59;228887;1193;140515;-69
2021/12/02 05:27:09;;;;;;;0.90;0.40;;;;;;;4.96;77.86;97322.04;228489;1193;140152;-69
2021/12/02 05:32:24;;;;;;;0.60;0.60;;;;;;;4.85;77.54;97316.88;228356;1193;151065;-70
2021/12/02 05:37:28;;;;;;;1.30;0.80;;;;;;;4.69;77.05;97323.39;228185;1193;139328;-68
2021/12/02 05:42:35;;;;;;;3.30;0.60;;;;;;;4.58;76.98;97333.08;228612;1193;140057;-69
2021/12/02 05:48:16;;;;;;;;;;;;;;;;;;;;;
2021/12/02 05:53:20;;;;;;;1.50;0.30;;;;;;;4.39;76.28;97338.45;228043;1193;138614;-70
2021/12/02 05:58:39;;;;;;;0.90;0.70;;;;;;;4.32;76.46;97348.20;228452;1193;139032;-68
2021/12/02 06:03:42;;;;;;;1.10;0.70;;;;;;;4.23;76.22;97364.66;229192;1193;141863;-72
2021/12/02 06:08:45;;;;;;;0.60;0.50;;;;;;;4.14;76.31;97360.41;228957;1193;138537;-70
2021/12/02 06:14:14;;;;;;;1.30;0.70;;;;;;;4.11;76.22;97364.48;229074;1193;138874;-68
2021/12/02 06:19:18;;;;;;;2.00;0.40;;;;;;;4.06;76.15;97356.85;228824;1193;140238;-69
2021/12/02 06:24:43;;;;;;;10.40;2.00;;;;;;;3.97;75.93;97365.70;229352;1193;139763;-69
2021/12/02 06:29:48;;;;;;;1.50;0.70;;;;;;;3.92;76.11;97375.94;229047;1193;139945;-68
2021/12/02 06:34:51;;;;;;;2.60;0.80;;;;;;;3.90;75.89;97383.88;229961;1193;140216;-68
2021/12/02 06:39:54;;;;;;;1.60;0.70;;;;;;;3.87;75.85;97395.60;230530;1193;140252;-73
2021/12/02 06:45:00;;;;;;;2.80;0.80;;;;;;;3.85;75.69;97398.79;230441;1193;138738;-68
2021/12/02 06:50:04;;;;;;;1.50;1.00;;;;;;;3.86;75.78;97407.59;230421;1193;139419;-72
2021/12/02 06:55:07;;;;;;;6.50;1.70;;;;;;;3.92;75.73;97412.20;230351;1193;139671;-72
2021/12/02 07:00:21;;;;;;;2.30;1.70;;;;;;;4.02;75.89;97413.55;229755;1193;140188;-70
2021/12/02 07:05:24;;;;;;;0.30;0.30;;;;;;;4.13;75.83;97404.16;229707;1193;160666;-71
2021/12/02 07:10:27;;;;;;;0.30;0.30;;;;;;;4.22;75.49;97408.00;229700;1188;140730;-70
2021/12/02 07:15:32;;;;;;;1.00;0.50;;;;;;;4.22;75.55;97409.64;227949;1193;140554;-70
2021/12/02 07:20:34;;;;;;;2.20;0.50;;;;;;;4.17;75.31;97414.23;229005;1193;140195;-69
2021/12/02 07:25:40;;;;;;;2.60;1.40;;;;;;;4.16;75.30;97429.30;227928;1193;139800;-70
2021/12/02 07:30:47;;;;;;;1.60;0.70;;;;;;;4.15;75.21;97441.11;228594;1193;141094;-68
2021/12/02 07:35:51;;;;;;;0.60;0.60;;;;;;;4.13;75.38;97451.83;227818;1193;138280;-69
2021/12/02 07:40:56;;;;;;;1.60;0.70;;;;;;;4.09;75.13;97454.02;227903;1193;138568;-68
2021/12/02 07:46:01;;;;;;;3.10;0.80;;;;;;;4.12;74.98;97466.05;228781;1194;139524;-68
2021/12/02 07:51:10;;;;;;;0.70;0.50;;;;;;;4.14;75.20;97472.62;228742;1195;139419;-69
2021/12/02 07:56:16;;;;;;;6.00;1.10;;;;;;;4.14;74.76;97486.92;227350;1195;139745;-69
2021/12/02 08:01:19;;;;;;;1.50;0.90;;;;;;;4.16;74.77;97493.85;228070;1193;140018;-69
2021/12/02 08:12:50;;;;;;;1.50;1.00;;;;;;;4.03;74.07;97521.32;228901;1193;139060;-68
2021/12/02 08:18:13;;;;;;;1.80;1.10;;;;;;;4.04;74.05;97523.51;228881;1193;138792;-70
2021/12/02 08:23:26;;;;;;;1.40;1.20;;;;;;;4.07;74.24;97521.11;227569;1193;138344;-68
2021/12/02 08:28:29;;;;;;;1.40;1.20;;;;;;;4.13;74.56;97534.99;228518;1193;139385;-69
2021/12/02 08:33:32;;;;;;;3.00;1.10;;;;;;;4.28;74.57;97542.65;229190;1193;139003;-68
2021/12/02 08:38:36;;;;;;;6.10;2.20;;;;;;;4.50;74.20;97551.01;227659;1193;139509;-70
2021/12/02 08:43:38;;;;;;;4.90;2.50;;;;;;;4.59;74.33;97553.56;229484;1193;138650;-68
2021/12/02 08:48:40;;;;;;;1.70;1.60;;;;;;;4.60;74.44;97564.92;230456;1193;140331;-70
2021/12/02 08:53:42;;;;;;;2.80;2.10;;;;;;;4.64;74.43;97573.73;230398;1193;140083;-72
2021/12/02 08:59:03;;;;;;;4.00;3.80;;;;;;;4.64;74.32;97577.36;229019;1193;139322;-68
2021/12/02 09:04:05;;;;;;;1.90;1.30;;;;;;;4.66;74.13;97573.64;228605;1193;139548;-69
2021/12/02 09:09:07;;;;;;;1.90;0.90;;;;;;;4.66;74.18;97577.59;229202;1193;140008;-69
2021/12/02 09:14:10;;;;;;;3.90;1.10;;;;;;;4.68;73.94;97574.98;227935;1193;138797;-68
2021/12/02 09:19:12;;;;;;;1.30;1.10;;;;;;;4.65;73.79;97577.05;227823;1193;138426;-69
2021/12/02 09:24:21;;;;;;;1.20;0.80;;;;;;;4.66;73.35;97575.33;228745;1193;138452;-71
2021/12/02 09:29:24;;;;;;;1.10;0.70;;;;;;;4.70;73.22;97580.05;227886;1193;139244;-68
2021/12/02 09:34:26;;;;;;;0.80;0.70;;;;;;;4.72;73.10;97582.09;228852;1193;139960;-69
2021/12/02 09:39:41;;;;;;;3.70;0.70;;;;;;;4.81;73.38;97586.62;228451;1193;140478;-68
2021/12/02 09:44:53;;;;;;;;;;;;;;;;;;;;;
2021/12/02 09:50:19;;;;;;;1.10;0.70;;;;;;;4.97;73.01;97588.91;228645;1193;140405;-71
2021/12/02 09:55:32;;;;;;;2.30;1.40;;;;;;;5.06;72.94;97590.70;228375;1193;138604;-68
2021/12/02 10:00:52;;;;;;;1.10;1.00;;;;;;;5.23;72.44;97588.86;229562;1193;139359;-72
2021/12/02 10:06:25;;;;;;;1.80;1.20;;;;;;;5.33;71.76;97595.08;228155;1193;139456;-70
2021/12/02 10:11:44;;;;;;;5.20;1.00;;;;;;;5.39;71.90;97608.12;228271;1193;139394;-70
2021/12/02 10:17:04;;;;;;;2.90;0.90;;;;;;;5.37;70.94;97596.59;228552;1193;139984;-69
2021/12/02 10:22:11;;;;;;;1.50;0.90;;;;;;;5.29;70.85;97598.00;229827;1193;139907;-69
2021/12/02 10:27:14;;;;;;;;;;;;;;;5.28;70.64;97599.84;227903;1193;139507;-68
2021/12/02 10:32:24;;;;;;;3.70;1.50;;;;;;;5.36;70.63;97610.84;227729;1195;126349;-68
2021/12/02 10:37:32;;;;;;;3.90;1.20;;;;;;;5.53;70.25;97612.33;230128;1194;140304;-68
2021/12/02 10:43:04;;;;;;;1.80;0.80;;;;;;;5.58;69.92;97610.77;229561;1193;140440;-69
2021/12/02 10:48:07;;;;;;;4.00;0.80;;;;;;;5.55;69.61;97616.69;230085;1194;139744;-68
2021/12/02 10:53:09;;;;;;;0.50;0.50;;;;;;;5.45;68.99;97616.52;227970;1193;139551;-71
2021/12/02 10:58:12;;;;;;;3.60;0.70;;;;;;;5.30;68.19;97629.23;230378;1193;139679;-73
2021/12/02 11:03:16;;;;;;;2.50;0.90;;;;;;;5.24;68.18;97623.63;229258;1193;140771;-69
2021/12/02 11:08:23;;;;;;;2.00;1.00;;;;;;;5.24;68.36;97620.98;228565;1193;138764;-75
2021/12/02 11:13:31;;;;;;;3.00;0.90;;;;;;;5.31;68.15;97625.39;229071;1193;138780;-70
2021/12/02 11:18:35;;;;;;;10.60;1.80;;;;;;;5.49;68.19;97637.90;228170;1193;138421;-69
2021/12/02 11:23:46;;;;;;;2.30;0.70;;;;;;;5.72;68.07;97648.21;228654;1193;139589;-71
2021/12/02 11:28:51;;;;;;;1.80;0.60;;;;;;;5.79;67.65;97652.92;229449;1193;139349;-69
2021/12/02 11:33:54;;;;;;;0.50;0.50;;;;;;;5.72;67.30;97656.00;229570;1193;139292;-70
2021/12/02 11:38:59;;;;;;;1.10;0.80;;;;;;;5.73;67.05;97658.16;228865;1193;139035;-68
2021/12/02 11:44:03;;;;;;;5.10;2.10;;;;;;;5.77;66.76;97670.71;228948;1193;141110;-69
2021/12/02 11:49:09;;;;;;;1.20;0.90;;;;;;;5.68;65.93;97674.61;228450;1193;139950;-70
2021/12/02 11:54:13;;;;;;;1.40;0.80;;;;;;;5.59;66.13;97681.73;228349;1193;144608;-74
2021/12/02 11:59:17;;;;;;;1.00;0.90;;;;;;;5.60;66.13;97676.40;227822;1193;140080;-71
2021/12/02 12:04:20;;;;;;;1.50;0.60;;;;;;;5.69;65.90;97678.11;228339;1193;140010;-71
2021/12/02 12:09:58;;;;;;;;;;;;;;;;;;;;;
2021/12/02 12:15:04;;;;;;;1.30;1.20;;;;;;;5.75;65.43;97684.93;229167;1193;140444;-70
2021/12/02 12:20:12;;;;;;;2.60;1.20;;;;;;;5.64;64.50;97687.11;229285;1193;140122;-70
2021/12/02 12:25:29;;;;;;;1.20;0.70;;;;;;;5.61;64.75;97696.54;229440;1193;139408;-72
2021/12/02 12:30:38;;;;;;;;;;;;;;;5.62;64.75;97705.54;228734;1193;142043;-71
2021/12/02 12:41:22;;;;;;;0.70;0.50;;;;;;;5.54;64.19;97714.14;229644;1193;139205;-72
2021/12/02 12:46:48;;;;;;;2.20;1.20;;;;;;;5.51;64.65;97724.96;230531;1192;139222;-72
2021/12/02 12:51:55;;;;;;;2.60;0.70;;;;;;;5.43;63.91;97725.21;230140;1194;139734;-72
2021/12/02 12:57:06;;;;;;;2.40;1.20;;;;;;;5.31;63.79;97730.64;230391;1193;139399;-72
2021/12/02 13:02:09;;;;;;;1.60;0.80;;;;;;;5.23;63.07;97730.34;229436;1193;138489;-69
2021/12/02 13:07:35;;;;;;;0.80;0.80;;;;;;;5.16;63.68;97737.73;229909;1193;139291;-69
2021/12/02 13:12:38;;;;;;;2.10;1.10;;;;;;;5.16;63.60;97753.90;228472;1193;139462;-69
2021/12/02 13:17:48;;;;;;;3.50;0.90;;;;;;;5.17;63.73;97764.16;229377;1193;138992;-69
2021/12/02 13:23:31;;;;;;;0.90;0.80;;;;;;;5.16;63.27;97764.23;228900;1193;140652;-69
2021/12/02 13:28:43;;;;;;;0.90;0.90;;;;;;;5.07;63.11;97765.73;228018;1193;139596;-68
2021/12/02 13:33:53;;;;;;;4.90;1.50;;;;;;;4.95;63.22;97778.95;228358;1192;139230;-70
2021/12/02 13:39:07;;;;;;;4.20;0.90;;;;;;;4.84;63.27;97787.90;228641;1193;139516;-71
2021/12/02 13:44:26;;;;;;;1.00;0.90;;;;;;;4.77;63.49;97787.17;228395;1193;139912;-69
2021/12/02 13:49:38;;;;;;;1.00;0.90;;;;;;;4.71;63.16;97793.59;227687;1193;139332;-67
2021/12/02 13:54:54;;;;;;;2.00;0.90;;;;;;;4.62;63.66;97795.45;228267;1193;150354;-68
2021/12/02 14:00:00;;;;;;;3.80;1.50;;;;;;;4.52;63.74;97798.24;229026;1193;138951;-68
2021/12/02 14:05:07;;;;;;;0.90;0.50;;;;;;;4.40;63.53;97810.56;228542;1193;140207;-70
2021/12/02 14:10:14;;;;;;;4.50;1.40;;;;;;;4.25;63.61;97813.66;228811;1194;139557;-69
2021/12/02 14:15:26;;;;;;;2.60;1.40;;;;;;;4.08;63.71;97820.63;229383;1192;139425;-71
2021/12/02 14:20:41;;;;;;;2.00;1.30;;;;;;;3.90;63.70;97834.00;228050;1193;138668;-70
2021/12/02 14:26:05;;;;;;;4.20;1.40;;;;;;;3.76;63.81;97845.82;229052;1193;138296;-68
2021/12/02 14:31:31;;;;;;;1.80;1.40;;;;;;;3.61;63.79;97854.67;229095;1193;140479;-73
2021/12/02 14:36:45;;;;;;;4.20;1.80;;;;;;;3.47;64.05;97861.98;229556;1193;139316;-69
2021/12/02 14:41:50;;;;;;;6.00;1.80;;;;;;;3.33;64.13;97864.73;230382;1192;139281;-72
2021/12/02 14:46:57;;;;;;;4.60;1.40;;;;;;;3.24;64.20;97869.39;230340;1193;140859;-74
2021/12/02 14:52:36;;;;;;;6.40;2.00;;;;;;;3.19;64.43;97883.25;230187;1193;138875;-70
2021/12/02 14:57:44;;;;;;;3.60;2.10;;;;;;;3.11;64.74;97888.39;228964;1193;141035;-68
2021/12/02 15:02:56;;;;;;;1.80;1.70;;;;;;;3.02;64.83;97897.02;230327;1192;139571;-73
2021/12/02 15:08:07;;;;;;;3.20;1.60;;;;;;;2.95;65.12;97902.23;229384;1193;140263;-72
2021/12/02 15:13:12;;;;;;;7.00;2.30;;;;;;;2.88;65.25;97911.33;229557;1193;139243;-70
2021/12/02 15:18:25;;;;;;;10.20;4.30;;;;;;;2.84;65.21;97914.14;228829;1194;139603;-72
2021/12/02 15:23:34;;;;;;;8.20;4.80;;;;;;;2.78;65.47;97922.59;227600;1193;139392;-68
2021/12/02 15:28:50;;;;;;;5.30;3.20;;;;;;;2.67;65.58;97929.55;229221;1193;149010;-69
2021/12/02 15:33:56;;;;;;;5.90;2.70;;;;;;;2.56;65.41;97934.29;228120;1193;140551;-71
2021/12/02 15:39:00;;;;;;;5.50;2.50;;;;;;;2.46;65.47;97944.77;229168;1193;139496;-68
2021/12/02 15:44:10;;;;;;;5.00;2.30;;;;;;;2.34;65.57;97968.46;228387;1192;140230;-67
2021/12/02 15:49:20;;;;;;;6.40;2.50;;;;;;;2.27;65.60;97979.33;228309;1193;139599;-68
2021/12/02 15:54:39;;;;;;;3.10;1.90;;;;;;;2.19;65.74;97985.45;229123;1192;140162;-69
2021/12/02 15:59:43;;;;;;;4.80;2.70;;;;;;;2.10;65.94;97984.58;228414;1193;140924;-70
2021/12/02 16:04:54;;;;;;;3.30;1.80;;;;;;;2.04;65.81;98000.59;229555;1192;139354;-73
2021/12/02 16:10:15;;;;;;;11.70;3.30;;;;;;;2.05;65.78;98008.98;228692;1193;139449;-69
2021/12/02 16:15:18;;;;;;;7.80;4.10;;;;;;;2.08;65.96;98016.31;229185;1193;139758;-69
2021/12/02 16:20:23;;;;;;;4.80;2.40;;;;;;;2.05;66.07;98019.38;229214;1178;139816;-66
2021/12/02 16:25:26;;;;;;;11.20;2.80;;;;;;;1.95;66.17;98026.16;230027;1193;139677;-68
2021/12/02 16:30:36;;;;;;;8.50;4.20;;;;;;;1.87;66.45;98023.50;229448;1193;139205;-67
2021/12/02 16:35:40;;;;;;;13.70;4.60;;;;;;;1.80;66.13;98031.05;229846;1193;139529;-67
2021/12/02 16:40:47;;;;;;;10.00;4.40;;;;;;;1.76;66.25;98035.82;229511;1193;140364;-69
2021/12/02 16:45:54;;;;;;;;;;;;;;;1.72;66.16;98044.84;229927;1193;138831;-68
2021/12/02 16:51:00;;;;;;;10.00;3.50;;;;;;;1.71;66.26;98058.10;230858;1193;126148;-68
2021/12/02 16:56:04;;;;;;;7.20;4.00;;;;;;;1.71;66.45;98058.95;230063;1195;139457;-69
2021/12/02 17:01:07;;;;;;;5.90;3.50;;;;;;;1.66;66.20;98061.38;230098;1192;139263;-69
2021/12/02 17:06:11;;;;;;;9.30;5.00;;;;;;;1.62;66.13;98062.67;230265;1193;139042;-68
2021/12/02 17:11:14;;;;;;;8.40;3.90;;;;;;;1.57;66.09;98070.35;229909;1193;139184;-70
2021/12/02 17:16:17;;;;;;;12.80;3.60;;;;;;;1.52;65.96;98073.73;228515;1193;139737;-67
2021/12/02 17:21:21;;;;;;;5.50;4.00;;;;;;;1.48;65.99;98075.40;229723;1193;140126;-67
2021/12/02 17:26:24;;;;;;;10.20;4.30;;;;;;;1.40;65.97;98081.13;227762;1193;139734;-67
2021/12/02 17:31:28;;;;;;;12.90;4.70;;;;;;;1.34;65.92;98091.87;228806;1193;140210;-67
2021/12/02 17:36:32;;;;;;;12.20;4.00;;;;;;;1.30;65.96;98103.97;228709;1193;139896;-67
2021/12/02 17:41:35;;;;;;;10.60;4.40;;;;;;;1.23;65.78;98108.59;227723;1193;140574;-67
2021/12/02 17:46:39;;;;;;;21.40;11.20;;;;;;;1.16;66.12;98117.20;228587;1193;140159;-62
2021/12/02 17:51:43;;;;;;;18.90;7.60;;;;;;;1.08;66.22;98117.69;227331;1193;141236;-62
2021/12/02 17:56:54;;;;;;;10.90;4.40;;;;;;;1.00;66.15;98125.84;228810;1193;139127;-61
2021/12/02 18:01:57;;;;;;;9.40;4.50;;;;;;;0.94;66.57;98124.95;228035;1193;139911;-65
2021/12/02 18:07:00;;;;;;;13.00;4.60;;;;;;;0.88;66.12;98128.24;228110;1193;139597;-65
2021/12/02 18:12:04;;;;;;;6.20;3.10;;;;;;;0.80;66.28;98135.63;227981;1193;140618;-65
2021/12/02 18:17:08;;;;;;;12.00;5.20;;;;;;;0.72;66.38;98146.52;228638;1193;139246;-64
2021/12/02 18:22:12;;;;;;;10.70;5.10;;;;;;;0.69;66.57;98159.85;228516;1193;141422;-66
2021/12/02 18:27:25;;;;;;;11.10;4.60;;;;;;;0.65;66.33;98161.92;228315;1193;139553;-66
2021/12/02 18:32:30;;;;;;;11.50;4.40;;;;;;;0.61;66.60;98168.16;229407;1193;139631;-65
2021/12/02 18:37:33;;;;;;;7.00;3.30;;;;;;;0.56;66.73;98173.25;229217;1193;140194;-65
2021/12/02 18:42:37;;;;;;;8.50;3.90;;;;;;;0.50;66.38;98175.52;229150;1193;141626;-66
2021/12/02 18:47:40;;;;;;;10.50;4.60;;;;;;;0.46;66.72;98178.48;230311;1193;139529;-67
2021/12/02 18:53:03;;;;;;;8.80;3.90;;;;;;;0.44;66.66;98181.77;229824;1193;139570;-66
2021/12/02 18:58:06;;;;;;;8.90;3.60;;;;;;;0.40;66.54;98184.95;230218;1193;140101;-67
2021/12/02 19:03:10;;;;;;;8.50;4.20;;;;;;;0.37;66.88;98184.59;229867;1193;138875;-67
2021/12/02 19:29:23;;;;;;;10.80;5.60;;;;;;;0.28;67.28;98211.41;228882;1193;139422;-66
2021/12/02 19:34:28;;;;;;;9.60;3.60;;;;;;;0.22;67.31;98217.67;229835;1193;139856;-66
2021/12/02 19:39:30;;;;;;;8.70;3.80;;;;;;;0.14;66.98;98218.98;228062;1193;140287;-65
2021/12/02 19:44:33;;;;;;;10.50;3.50;;;;;;;0.09;67.05;98226.33;228970;1193;139708;-65
2021/12/02 19:49:43;;;;;;;5.60;3.90;;;;;;;0.00;67.30;98226.86;228489;1193;139497;-65
2021/12/02 19:54:47;;;;;;;8.80;5.80;;;;;;;-0.01;67.38;98230.54;228610;1193;140185;-65
2021/12/02 19:59:51;;;;;;;17.70;6.40;;;;;;;-0.04;67.69;98236.59;229499;1193;140681;-66
2021/12/02 20:05:04;;;;;;;9.40;3.80;;;;;;;-0.07;68.05;98249.36;228584;1193;140225;-67
2021/12/02 20:10:10;;;;;;;11.50;4.90;;;;;;;-0.13;68.00;98256.49;228899;1193;138873;-66
2021/12/02 20:15:17;;;;;;;8.00;4.80;;;;;;;-0.18;68.22;98256.94;229248;1193;139371;-65
2021/12/02 20:20:24;;;;;;;13.90;6.50;;;;;;;-0.26;68.28;98255.16;229581;1193;140014;-66
2021/12/02 20:25:26;;;;;;;11.80;6.50;;;;;;;-0.33;68.25;98257.91;228926;1193;139580;-65
2021/12/02 20:30:31;;;;;;;16.60;7.30;;;;;;;-0.40;68.25;98258.11;229447;1193;138798;-66
2021/12/02 20:35:34;;;;;;;13.90;6.10;;;;;;;-0.47;68.51;98265.07;229029;1193;140737;-66
2021/12/02 20:40:37;;;;;;;14.40;7.70;;;;;;;-0.48;68.49;98273.40;228353;1193;139527;-66
2021/12/02 20:45:41;;;;;;;9.20;3.90;;;;;;;-0.51;69.08;98273.71;229301;1193;140959;-66
2021/12/02 20:50:45;;;;;;;17.30;9.10;;;;;;;-0.58;69.01;98279.78;229026;1193;140013;-65
2021/12/02 20:55:54;;;;;;;9.20;3.80;;;;;;;-0.63;69.07;98286.11;228840;1193;138894;-66
2021/12/02 21:00:57;;;;;;;13.10;7.30;;;;;;;-0.66;69.22;98284.89;230313;1193;140827;-68
2021/12/02 21:06:01;;;;;;;18.40;8.20;;;;;;;-0.70;69.27;98289.75;230427;1193;139960;-68
2021/12/02 21:11:06;;;;;;;19.10;8.30;;;;;;;-0.69;69.42;98292.90;230334;1193;142469;-68
2021/12/02 21:16:11;;;;;;;17.90;8.40;;;;;;;-0.67;69.30;98301.80;228985;1193;139305;-66
2021/12/02 21:21:16;;;;;;;13.70;7.30;;;;;;;-0.67;69.47;98308.57;228975;1192;142355;-66
2021/12/02 21:26:24;;;;;;;16.80;8.60;;;;;;;-0.72;69.80;98321.02;229884;1193;138763;-67
2021/12/02 21:31:29;;;;;;;19.20;8.10;;;;;;;-0.76;69.69;98331.27;228076;1193;139874;-66
2021/12/02 21:36:39;;;;;;;19.20;7.10;;;;;;;-0.80;69.72;98333.47;228916;1193;140460;-66
2021/12/02 21:41:44;;;;;;;18.50;9.30;;;;;;;-0.87;70.03;98336.26;228638;1193;139193;-64
2021/12/02 21:46:49;;;;;;;15.50;7.20;;;;;;;-0.92;70.15;98339.38;229292;1193;140222;-65
2021/12/02 21:51:56;;;;;;;18.70;8.10;;;;;;;-0.98;70.16;98345.52;228800;1193;139346;-66
2021/12/02 21:57:03;;;;;;;16.80;6.90;;;;;;;-1.05;70.34;98351.05;227842;1193;138794;-65
2021/12/02 22:02:07;;;;;;;21.40;8.60;;;;;;;-1.07;70.22;98358.96;227713;1193;141222;-65
2021/12/02 22:07:13;;;;;;;16.90;7.70;;;;;;;-1.06;70.52;98362.27;228867;1190;139952;-65
2021/12/02 22:12:19;;;;;;;17.30;7.30;;;;;;;-1.04;70.92;98370.09;229188;1193;140722;-65
2021/12/02 22:17:25;;;;;;;17.90;7.30;;;;;;;-1.03;71.07;98375.00;228945;1193;139311;-65
2021/12/02 22:22:30;;;;;;;16.40;7.70;;;;;;;-0.99;71.23;98379.61;228586;1193;139005;-64
2021/12/02 22:27:33;;;;;;;15.90;8.00;;;;;;;-0.93;71.59;98377.75;227638;1193;138907;-64
2021/12/02 22:32:37;;;;;;;14.20;7.90;;;;;;;-0.88;71.56;98377.90;228730;1193;141407;-64
2021/12/02 22:37:42;;;;;;;19.50;7.30;;;;;;;-0.83;71.48;98384.61;228354;1193;140657;-64
2021/12/02 22:42:52;;;;;;;17.40;6.50;;;;;;;-0.71;71.78;98398.23;228824;1193;139986;-65
2021/12/02 22:47:56;;;;;;;22.60;6.90;;;;;;;-0.60;71.75;98401.09;228882;1193;140592;-65
2021/12/02 22:53:00;;;;;;;17.70;7.60;;;;;;;-0.54;71.65;98400.88;230513;1193;140267;-67
2021/12/02 22:58:03;;;;;;;10.80;5.20;;;;;;;-0.50;71.75;98399.84;229973;1193;139754;-67
2021/12/02 23:03:08;;;;;;;11.30;6.70;;;;;;;-0.50;71.36;98391.79;229174;1192;139643;-66
2021/12/02 23:08:13;;;;;;;13.50;6.20;;;;;;;-0.44;71.30;98383.23;230026;1193;140641;-66
2021/12/02 23:13:17;;;;;;;16.10;6.60;;;;;;;-0.45;70.99;98378.64;230365;1193;141157;-66
2021/12/02 23:18:23;;;;;;;10.20;5.30;;;;;;;-0.48;71.26;98381.12;229110;1193;140156;-65
2021/12/02 23:23:28;;;;;;;14.70;6.20;;;;;;;-0.50;71.11;98385.87;228414;1193;138865;-65
2021/12/02 23:28:32;;;;;;;10.30;5.50;;;;;;;-0.57;71.35;98396.35;229585;1193;139694;-66
2021/12/02 23:33:40;;;;;;;16.60;6.20;;;;;;;-0.66;71.36;98403.98;228111;1193;139323;-66
2021/12/02 23:38:44;;;;;;;19.00;7.90;;;;;;;-0.75;71.62;98410.06;229153;1193;138936;-65
2021/12/02 23:43:47;;;;;;;12.30;6.70;;;;;;;-0.79;71.71;98418.80;229184;1193;138915;-65
2021/12/02 23:48:50;;;;;;;15.60;7.60;;;;;;;-0.74;71.54;98427.38;227812;1193;139461;-65
2021/12/02 23:53:54;;;;;;;12.20;5.60;;;;;;;-0.68;72.16;98424.83;228830;1187;139190;-65
2021/12/02 23:58:58;;;;;;;14.80;7.90;;;;;;;-0.64;71.93;98432.98;228607;1193;139060;-65
